sensor_id;sensor_type;location;lat;lon;timestamp;pressure;altitude;pressure_sealevel;temperature;humidity
18985;BME280;9626;52.552;13.436;2023-04-10T00:02:20;102019.53;;;6.73;100.00
18985;BME280;9626;52.552;13.436;2023-04-10T00:04:47;102015.38;;;6.85;100.00
18985;BME280;9626;52.552;13.436;2023-04-10T00:07:13;102015.31;;;6.82;100.00
18985;BME280;9626;52.552;13.436;2023-04-10T00:09:39;102010.78;;;6.74;100.00
18985;BME280;9626;52.552;13.436;2023-04-10T00:12:07;102007.78;;;6.53;100.00
18985;BME280;9626;52.552;13.436;2023-04-10T00:14:33;102008.31;;;6.35;100.00
18985;BME280;9626;52.552;13.436;2023-04-10T00:16:59;102007.09;;;6.16;100.00
18985;BME280;9626;52.552;13.436;2023-04-10T00:19:25;102005.06;;;6.02;100.00
18985;BME280;9626;52.552;13.436;2023-04-10T00:21:51;102004.09;;;5.97;100.00
18985;BME280;9626;52.552;13.436;2023-04-10T00:24:17;102004.78;;;5.90;100.00
18985;BME280;9626;52.552;13.436;2023-04-10T00:26:43;102000.25;;;5.83;100.00
18985;BME280;9626;52.552;13.436;2023-04-10T00:29:09;101999.53;;;5.90;100.00
18985;BME280;9626;52.552;13.436;2023-04-10T00:31:36;101992.13;;;5.70;100.00
18985;BME280;9626;52.552;13.436;2023-04-10T00:34:02;101994.59;;;5.64;100.00
18985;BME280;9626;52.552;13.436;2023-04-10T00:36:28;102000.19;;;5.78;100.00
18985;BME280;9626;52.552;13.436;2023-04-10T00:38:54;101994.69;;;5.67;100.00
18985;BME280;9626;52.552;13.436;2023-04-10T00:41:21;101992.00;;;5.66;100.00
18985;BME280;9626;52.552;13.436;2023-04-10T00:43:48;101988.31;;;5.56;100.00
18985;BME280;9626;52.552;13.436;2023-04-10T00:46:14;101983.00;;;5.53;100.00
18985;BME280;9626;52.552;13.436;2023-04-10T00:48:41;101983.78;;;5.49;100.00
18985;BME280;9626;52.552;13.436;2023-04-10T00:51:07;101981.19;;;5.50;100.00
18985;BME280;9626;52.552;13.436;2023-04-10T00:53:33;101979.09;;;5.76;100.00
18985;BME280;9626;52.552;13.436;2023-04-10T00:56:00;101975.16;;;5.56;100.00
18985;BME280;9626;52.552;13.436;2023-04-10T00:58:26;101973.25;;;5.49;100.00
18985;BME280;9626;52.552;13.436;2023-04-10T01:00:52;101966.19;;;5.89;100.00
18985;BME280;9626;52.552;13.436;2023-04-10T01:03:19;101970.66;;;5.93;100.00
18985;BME280;9626;52.552;13.436;2023-04-10T01:06:11;101966.59;;;6.07;100.00
18985;BME280;9626;52.552;13.436;2023-04-10T01:09:00;101973.06;;;6.23;100.00
18985;BME280;9626;52.552;13.436;2023-04-10T01:11:47;101964.34;;;6.26;100.00
18985;BME280;9626;52.552;13.436;2023-04-10T01:17:06;101972.28;;;6.29;100.00
18985;BME280;9626;52.552;13.436;2023-04-10T01:20:01;101957.69;;;6.47;100.00
18985;BME280;9626;52.552;13.436;2023-04-10T01:22:34;101968.16;;;6.43;100.00
18985;BME280;9626;52.552;13.436;2023-04-10T01:30:27;101974.06;;;5.45;100.00
18985;BME280;9626;52.552;13.436;2023-04-10T01:32:58;101974.56;;;5.28;100.00
18985;BME280;9626;52.552;13.436;2023-04-10T01:35:27;101975.63;;;5.36;100.00
18985;BME280;9626;52.552;13.436;2023-04-10T01:37:56;101972.56;;;5.18;100.00
18985;BME280;9626;52.552;13.436;2023-04-10T01:40:25;101973.88;;;5.37;100.00
18985;BME280;9626;52.552;13.436;2023-04-10T01:42:54;101969.38;;;5.31;100.00
18985;BME280;9626;52.552;13.436;2023-04-10T01:45:27;101977.91;;;5.61;100.00
18985;BME280;9626;52.552;13.436;2023-04-10T01:47:55;101966.81;;;5.74;100.00
18985;BME280;9626;52.552;13.436;2023-04-10T01:50:21;101971.50;;;5.90;100.00
18985;BME280;9626;52.552;13.436;2023-04-10T01:52:51;101969.53;;;5.80;100.00
18985;BME280;9626;52.552;13.436;2023-04-10T01:55:21;101964.53;;;5.50;100.00
18985;BME280;9626;52.552;13.436;2023-04-10T01:57:47;101958.75;;;5.25;100.00
18985;BME280;9626;52.552;13.436;2023-04-10T02:00:14;101957.81;;;5.23;100.00
18985;BME280;9626;52.552;13.436;2023-04-10T02:02:41;101959.44;;;5.18;100.00
18985;BME280;9626;52.552;13.436;2023-04-10T02:05:09;101958.31;;;5.06;100.00
18985;BME280;9626;52.552;13.436;2023-04-10T02:07:41;101960.72;;;4.97;100.00
18985;BME280;9626;52.552;13.436;2023-04-10T02:10:12;101959.59;;;4.86;100.00
18985;BME280;9626;52.552;13.436;2023-04-10T02:15:10;101959.22;;;4.70;100.00
18985;BME280;9626;52.552;13.436;2023-04-10T02:17:37;101960.09;;;4.71;100.00
18985;BME280;9626;52.552;13.436;2023-04-10T02:20:06;101963.13;;;4.88;100.00
18985;BME280;9626;52.552;13.436;2023-04-10T02:22:34;101957.38;;;5.04;100.00
18985;BME280;9626;52.552;13.436;2023-04-10T02:25:03;101949.22;;;4.92;100.00
18985;BME280;9626;52.552;13.436;2023-04-10T02:27:33;101952.41;;;4.79;100.00
18985;BME280;9626;52.552;13.436;2023-04-10T02:30:01;101959.59;;;4.86;100.00
18985;BME280;9626;52.552;13.436;2023-04-10T02:32:31;101951.50;;;4.78;100.00
18985;BME280;9626;52.552;13.436;2023-04-10T02:34:58;101961.06;;;4.74;100.00
18985;BME280;9626;52.552;13.436;2023-04-10T02:37:24;101968.81;;;5.06;100.00
18985;BME280;9626;52.552;13.436;2023-04-10T02:39:51;101965.03;;;5.32;100.00
18985;BME280;9626;52.552;13.436;2023-04-10T02:42:17;101963.31;;;5.34;100.00
18985;BME280;9626;52.552;13.436;2023-04-10T02:44:43;101966.75;;;5.31;100.00
18985;BME280;9626;52.552;13.436;2023-04-10T02:47:09;101963.47;;;5.41;100.00
18985;BME280;9626;52.552;13.436;2023-04-10T02:49:35;101972.56;;;5.18;100.00
18985;BME280;9626;52.552;13.436;2023-04-10T02:52:01;101964.00;;;4.87;100.00
18985;BME280;9626;52.552;13.436;2023-04-10T02:54:27;101970.66;;;5.11;100.00
18985;BME280;9626;52.552;13.436;2023-04-10T02:56:57;101964.06;;;4.90;100.00
18985;BME280;9626;52.552;13.436;2023-04-10T02:59:23;101972.38;;;4.72;100.00
18985;BME280;9626;52.552;13.436;2023-04-10T03:01:50;101968.00;;;4.72;100.00
18985;BME280;9626;52.552;13.436;2023-04-10T03:04:19;101968.88;;;4.73;100.00
18985;BME280;9626;52.552;13.436;2023-04-10T03:06:45;101967.69;;;4.60;100.00
18985;BME280;9626;52.552;13.436;2023-04-10T03:09:11;101971.28;;;4.64;100.00
18985;BME280;9626;52.552;13.436;2023-04-10T03:11:37;101965.41;;;4.74;100.00
18985;BME280;9626;52.552;13.436;2023-04-10T03:14:04;101967.69;;;4.60;100.00
18985;BME280;9626;52.552;13.436;2023-04-10T03:16:30;101972.31;;;4.35;100.00
18985;BME280;9626;52.552;13.436;2023-04-10T03:18:56;101972.91;;;4.25;100.00
18985;BME280;9626;52.552;13.436;2023-04-10T03:21:22;101974.38;;;4.15;100.00
18985;BME280;9626;52.552;13.436;2023-04-10T03:23:48;101975.94;;;4.09;100.00
18985;BME280;9626;52.552;13.436;2023-04-10T03:26:14;101969.94;;;4.13;100.00
18985;BME280;9626;52.552;13.436;2023-04-10T03:28:40;101972.38;;;4.38;100.00
18985;BME280;9626;52.552;13.436;2023-04-10T03:31:06;101967.22;;;4.42;100.00
18985;BME280;9626;52.552;13.436;2023-04-10T03:33:32;101969.78;;;4.40;100.00
18985;BME280;9626;52.552;13.436;2023-04-10T03:35:58;101973.16;;;4.34;100.00
18985;BME280;9626;52.552;13.436;2023-04-10T03:38:24;101970.16;;;4.54;100.00
18985;BME280;9626;52.552;13.436;2023-04-10T03:40:50;101971.56;;;4.74;100.00
18985;BME280;9626;52.552;13.436;2023-04-10T03:43:16;101963.81;;;4.81;100.00
18985;BME280;9626;52.552;13.436;2023-04-10T03:45:42;101968.09;;;4.77;100.00
18985;BME280;9626;52.552;13.436;2023-04-10T03:48:08;101964.38;;;4.67;100.00
18985;BME280;9626;52.552;13.436;2023-04-10T03:50:34;101965.91;;;4.59;100.00
18985;BME280;9626;52.552;13.436;2023-04-10T03:53:00;101973.47;;;4.47;100.00
18985;BME280;9626;52.552;13.436;2023-04-10T03:55:26;101973.31;;;4.40;100.00
18985;BME280;9626;52.552;13.436;2023-04-10T03:57:52;101964.13;;;4.23;100.00
18985;BME280;9626;52.552;13.436;2023-04-10T04:00:19;101969.88;;;4.10;100.00
18985;BME280;9626;52.552;13.436;2023-04-10T04:02:49;101969.94;;;4.13;100.00
18985;BME280;9626;52.552;13.436;2023-04-10T04:05:16;101969.53;;;3.97;100.00
18985;BME280;9626;52.552;13.436;2023-04-10T04:07:43;101971.50;;;4.06;100.00
18985;BME280;9626;52.552;13.436;2023-04-10T04:10:09;101974.84;;;4.00;100.00
18985;BME280;9626;52.552;13.436;2023-04-10T04:12:35;101979.81;;;4.21;100.00
18985;BME280;9626;52.552;13.436;2023-04-10T04:15:01;101970.31;;;4.27;100.00
18985;BME280;9626;52.552;13.436;2023-04-10T04:17:27;101972.31;;;4.35;100.00
18985;BME280;9626;52.552;13.436;2023-04-10T04:19:53;101973.88;;;4.29;100.00
18985;BME280;9626;52.552;13.436;2023-04-10T04:22:19;101962.56;;;4.30;100.00
18985;BME280;9626;52.552;13.436;2023-04-10T04:24:45;101969.19;;;4.17;100.00
18985;BME280;9626;52.552;13.436;2023-04-10T04:27:11;101967.00;;;4.00;100.00
18985;BME280;9626;52.552;13.436;2023-04-10T04:29:37;101973.75;;;3.92;100.00
18985;BME280;9626;52.552;13.436;2023-04-10T04:32:03;101966.56;;;3.85;100.00
18985;BME280;9626;52.552;13.436;2023-04-10T04:34:29;101960.22;;;3.77;100.00
18985;BME280;9626;52.552;13.436;2023-04-10T04:36:55;101969.44;;;3.94;100.00
18985;BME280;9626;52.552;13.436;2023-04-10T04:39:21;101968.66;;;4.30;100.00
18985;BME280;9626;52.552;13.436;2023-04-10T04:41:48;101969.19;;;4.50;100.00
18985;BME280;9626;52.552;13.436;2023-04-10T04:44:14;101968.28;;;4.50;100.00
18985;BME280;9626;52.552;13.436;2023-04-10T04:46:40;101972.91;;;4.25;100.00
18985;BME280;9626;52.552;13.436;2023-04-10T04:49:06;101970.94;;;4.16;100.00
18985;BME280;9626;52.552;13.436;2023-04-10T04:51:32;101974.16;;;4.07;100.00
18985;BME280;9626;52.552;13.436;2023-04-10T04:53:58;101975.81;;;4.02;100.00
18985;BME280;9626;52.552;13.436;2023-04-10T04:56:25;101974.00;;;4.01;100.00
18985;BME280;9626;52.552;13.436;2023-04-10T04:58:51;101971.84;;;4.18;100.00
18985;BME280;9626;52.552;13.436;2023-04-10T05:01:17;101968.38;;;4.51;100.00
18985;BME280;9626;52.552;13.436;2023-04-10T05:03:43;101970.41;;;4.65;100.00
18985;BME280;9626;52.552;13.436;2023-04-10T05:06:10;101967.44;;;4.51;100.00
18985;BME280;9626;52.552;13.436;2023-04-10T05:08:37;101963.91;;;4.49;100.00
18985;BME280;9626;52.552;13.436;2023-04-10T05:11:03;101968.84;;;4.36;100.00
18985;BME280;9626;52.552;13.436;2023-04-10T05:13:29;101971.41;;;4.68;100.00
18985;BME280;9626;52.552;13.436;2023-04-10T05:15:55;101977.78;;;4.80;100.00
18985;BME280;9626;52.552;13.436;2023-04-10T05:18:21;101967.13;;;4.72;100.00
18985;BME280;9626;52.552;13.436;2023-04-10T05:20:49;101972.13;;;4.63;100.00
18985;BME280;9626;52.552;13.436;2023-04-10T05:23:15;101967.94;;;4.69;100.00
18985;BME280;9626;52.552;13.436;2023-04-10T05:25:41;101974.09;;;4.71;100.00
18985;BME280;9626;52.552;13.436;2023-04-10T05:28:08;101982.75;;;4.69;100.00
18985;BME280;9626;52.552;13.436;2023-04-10T05:30:34;101980.22;;;4.70;100.00
18985;BME280;9626;52.552;13.436;2023-04-10T05:33:00;101982.06;;;4.74;100.00
18985;BME280;9626;52.552;13.436;2023-04-10T05:35:26;101986.91;;;4.94;100.00
18985;BME280;9626;52.552;13.436;2023-04-10T05:37:52;101981.75;;;4.99;100.00
18985;BME280;9626;52.552;13.436;2023-04-10T05:40:18;101994.91;;;5.00;100.00
18985;BME280;9626;52.552;13.436;2023-04-10T05:42:44;101989.97;;;5.13;100.00
18985;BME280;9626;52.552;13.436;2023-04-10T05:45:11;101978.75;;;5.20;100.00
18985;BME280;9626;52.552;13.436;2023-04-10T05:47:38;101977.28;;;5.33;100.00
18985;BME280;9626;52.552;13.436;2023-04-10T05:50:04;101972.28;;;5.44;100.00
18985;BME280;9626;52.552;13.436;2023-04-10T05:52:30;101977.78;;;5.56;100.00
18985;BME280;9626;52.552;13.436;2023-04-10T05:54:58;101977.16;;;5.66;100.00
18985;BME280;9626;52.552;13.436;2023-04-10T05:57:24;101979.16;;;5.78;100.00
18985;BME280;9626;52.552;13.436;2023-04-10T05:59:50;101980.22;;;5.88;100.00
18985;BME280;9626;52.552;13.436;2023-04-10T06:02:16;101977.78;;;5.97;100.00
18985;BME280;9626;52.552;13.436;2023-04-10T06:04:43;101973.69;;;6.12;100.00
18985;BME280;9626;52.552;13.436;2023-04-10T06:07:09;101973.88;;;6.21;100.00
18985;BME280;9626;52.552;13.436;2023-04-10T06:09:35;101974.94;;;6.31;100.00
18985;BME280;9626;52.552;13.436;2023-04-10T06:12:01;101971.59;;;6.39;100.00
18985;BME280;9626;52.552;13.436;2023-04-10T06:14:27;101970.00;;;6.48;100.00
18985;BME280;9626;52.552;13.436;2023-04-10T06:16:53;101963.25;;;6.65;100.00
18985;BME280;9626;52.552;13.436;2023-04-10T06:19:19;101966.16;;;6.82;100.00
18985;BME280;9626;52.552;13.436;2023-04-10T06:21:45;101968.00;;;6.88;100.00
18985;BME280;9626;52.552;13.436;2023-04-10T06:24:11;101967.31;;;6.98;100.00
18985;BME280;9626;52.552;13.436;2023-04-10T06:26:38;101964.84;;;7.09;100.00
18985;BME280;9626;52.552;13.436;2023-04-10T06:29:04;101962.34;;;7.20;100.00
18985;BME280;9626;52.552;13.436;2023-04-10T06:31:33;101952.84;;;7.31;100.00
18985;BME280;9626;52.552;13.436;2023-04-10T06:34:00;101961.78;;;7.41;100.00
18985;BME280;9626;52.552;13.436;2023-04-10T06:36:26;101957.38;;;7.41;100.00
18985;BME280;9626;52.552;13.436;2023-04-10T06:38:52;101959.97;;;7.37;100.00
18985;BME280;9626;52.552;13.436;2023-04-10T06:41:19;101963.50;;;7.39;100.00
18985;BME280;9626;52.552;13.436;2023-04-10T06:43:46;101960.13;;;7.49;100.00
18985;BME280;9626;52.552;13.436;2023-04-10T06:46:12;101960.06;;;7.44;100.00
18985;BME280;9626;52.552;13.436;2023-04-10T06:48:39;101955.78;;;7.51;100.00
18985;BME280;9626;52.552;13.436;2023-04-10T06:51:05;101955.94;;;7.65;100.00
18985;BME280;9626;52.552;13.436;2023-04-10T06:53:31;101957.75;;;7.69;100.00
18985;BME280;9626;52.552;13.436;2023-04-10T06:55:57;101956.94;;;7.75;100.00
18985;BME280;9626;52.552;13.436;2023-04-10T06:58:23;101955.28;;;7.83;100.00
18985;BME280;9626;52.552;13.436;2023-04-10T07:00:49;101957.09;;;7.89;100.00
18985;BME280;9626;52.552;13.436;2023-04-10T07:03:15;101951.06;;;7.99;100.00
18985;BME280;9626;52.552;13.436;2023-04-10T07:05:42;101957.25;;;8.04;100.00
18985;BME280;9626;52.552;13.436;2023-04-10T07:08:08;101955.56;;;8.09;100.00
18985;BME280;9626;52.552;13.436;2023-04-10T07:10:34;101957.44;;;8.18;100.00
18985;BME280;9626;52.552;13.436;2023-04-10T07:13:00;101953.13;;;8.28;100.00
18985;BME280;9626;52.552;13.436;2023-04-10T07:15:26;101948.00;;;8.43;100.00
18985;BME280;9626;52.552;13.436;2023-04-10T07:17:52;101951.63;;;8.52;100.00
18985;BME280;9626;52.552;13.436;2023-04-10T07:20:18;101951.69;;;8.61;100.00
18985;BME280;9626;52.552;13.436;2023-04-10T07:22:44;101946.41;;;8.56;100.00
18985;BME280;9626;52.552;13.436;2023-04-10T07:25:10;101951.59;;;8.49;100.00
18985;BME280;9626;52.552;13.436;2023-04-10T07:27:36;101954.34;;;8.59;100.00
18985;BME280;9626;52.552;13.436;2023-04-10T07:30:03;101958.78;;;8.68;100.00
18985;BME280;9626;52.552;13.436;2023-04-10T07:32:29;101956.22;;;8.76;100.00
18985;BME280;9626;52.552;13.436;2023-04-10T07:34:55;101957.06;;;8.67;100.00
18985;BME280;9626;52.552;13.436;2023-04-10T07:37:21;101944.81;;;8.78;100.00
18985;BME280;9626;52.552;13.436;2023-04-10T07:39:47;101952.72;;;8.77;100.00
18985;BME280;9626;52.552;13.436;2023-04-10T07:42:13;101946.63;;;8.89;100.00
18985;BME280;9626;52.552;13.436;2023-04-10T07:44:39;101945.84;;;9.01;100.00
18985;BME280;9626;52.552;13.436;2023-04-10T07:47:05;101948.63;;;9.25;100.00
18985;BME280;9626;52.552;13.436;2023-04-10T07:49:31;101942.53;;;9.34;100.00
18985;BME280;9626;52.552;13.436;2023-04-10T07:51:57;101949.66;;;9.52;100.00
18985;BME280;9626;52.552;13.436;2023-04-10T07:54:23;101945.28;;;9.56;100.00
18985;BME280;9626;52.552;13.436;2023-04-10T07:56:51;101943.63;;;9.86;100.00
18985;BME280;9626;52.552;13.436;2023-04-10T07:59:17;101941.97;;;10.19;100.00
18985;BME280;9626;52.552;13.436;2023-04-10T08:01:43;101934.94;;;10.44;100.00
18985;BME280;9626;52.552;13.436;2023-04-10T08:04:09;101928.75;;;10.73;100.00
18985;BME280;9626;52.552;13.436;2023-04-10T08:06:36;101924.31;;;11.04;100.00
18985;BME280;9626;52.552;13.436;2023-04-10T08:09:02;101924.25;;;11.32;100.00
18985;BME280;9626;52.552;13.436;2023-04-10T08:11:34;101923.31;;;11.47;100.00
18985;BME280;9626;52.552;13.436;2023-04-10T08:14:02;101917.94;;;11.62;100.00
18985;BME280;9626;52.552;13.436;2023-04-10T08:16:30;101918.72;;;11.89;100.00
18985;BME280;9626;52.552;13.436;2023-04-10T08:18:57;101914.13;;;12.21;100.00
18985;BME280;9626;52.552;13.436;2023-04-10T08:21:25;101914.13;;;12.16;100.00
18985;BME280;9626;52.552;13.436;2023-04-10T08:23:56;101914.81;;;12.44;100.00
18985;BME280;9626;52.552;13.436;2023-04-10T08:26:22;101912.06;;;12.55;100.00
18985;BME280;9626;52.552;13.436;2023-04-10T08:28:51;101924.19;;;12.87;99.83
18985;BME280;9626;52.552;13.436;2023-04-10T08:31:19;101918.84;;;12.92;96.05
18985;BME280;9626;52.552;13.436;2023-04-10T08:33:46;101919.81;;;12.80;97.50
18985;BME280;9626;52.552;13.436;2023-04-10T08:36:12;101916.88;;;13.09;94.01
18985;BME280;9626;52.552;13.436;2023-04-10T08:38:44;101921.22;;;13.16;94.30
18985;BME280;9626;52.552;13.436;2023-04-10T08:41:15;101918.91;;;12.82;94.31
18985;BME280;9626;52.552;13.436;2023-04-10T08:43:42;101917.94;;;12.93;93.96
18985;BME280;9626;52.552;13.436;2023-04-10T08:46:10;101911.50;;;13.14;90.77
18985;BME280;9626;52.552;13.436;2023-04-10T08:51:19;101909.53;;;13.31;88.62
18985;BME280;9626;52.552;13.436;2023-04-10T08:53:49;101902.41;;;13.38;88.30
18985;BME280;9626;52.552;13.436;2023-04-10T08:56:17;101910.06;;;13.63;84.80
18985;BME280;9626;52.552;13.436;2023-04-10T08:58:44;101903.63;;;13.79;77.61
18985;BME280;9626;52.552;13.436;2023-04-10T09:01:10;101894.50;;;13.99;79.37
18985;BME280;9626;52.552;13.436;2023-04-10T09:03:37;101891.56;;;14.16;77.33
18985;BME280;9626;52.552;13.436;2023-04-10T09:06:04;101885.72;;;14.48;74.87
18985;BME280;9626;52.552;13.436;2023-04-10T09:08:30;101887.84;;;14.28;71.42
18985;BME280;9626;52.552;13.436;2023-04-10T09:10:57;101885.88;;;14.92;67.50
18985;BME280;9626;52.552;13.436;2023-04-10T09:13:40;101881.69;;;14.77;70.52
18985;BME280;9626;52.552;13.436;2023-04-10T09:16:07;101874.69;;;14.72;68.66
18985;BME280;9626;52.552;13.436;2023-04-10T09:18:45;101871.91;;;14.23;73.72
18985;BME280;9626;52.552;13.436;2023-04-10T09:21:17;101863.84;;;14.82;71.98
18985;BME280;9626;52.552;13.436;2023-04-10T09:23:46;101860.22;;;15.30;68.76
18985;BME280;9626;52.552;13.436;2023-04-10T09:26:26;101866.91;;;15.50;66.04
18985;BME280;9626;52.552;13.436;2023-04-10T09:29:04;101863.97;;;15.64;64.09
18985;BME280;9626;52.552;13.436;2023-04-10T09:31:31;101853.53;;;15.92;63.13
18985;BME280;9626;52.552;13.436;2023-04-10T09:36:33;101850.31;;;15.78;63.54
18985;BME280;9626;52.552;13.436;2023-04-10T09:38:59;101849.09;;;15.93;61.92
18985;BME280;9626;52.552;13.436;2023-04-10T09:41:25;101839.88;;;16.06;62.54
18985;BME280;9626;52.552;13.436;2023-04-10T09:44:08;101837.88;;;16.50;60.55
18985;BME280;9626;52.552;13.436;2023-04-10T09:46:36;101841.56;;;16.45;60.32
18985;BME280;9626;52.552;13.436;2023-04-10T09:49:02;101824.22;;;15.50;63.42
18985;BME280;9626;52.552;13.436;2023-04-10T09:51:34;101824.72;;;15.67;62.98
18985;BME280;9626;52.552;13.436;2023-04-10T09:54:02;101834.88;;;15.50;64.04
18985;BME280;9626;52.552;13.436;2023-04-10T09:56:29;101823.63;;;15.76;62.72
18985;BME280;9626;52.552;13.436;2023-04-10T09:58:57;101820.75;;;16.23;60.63
18985;BME280;9626;52.552;13.436;2023-04-10T10:01:27;101819.38;;;16.41;60.10
18985;BME280;9626;52.552;13.436;2023-04-10T10:03:54;101818.66;;;16.69;58.18
18985;BME280;9626;52.552;13.436;2023-04-10T10:06:21;101814.75;;;16.81;58.27
18985;BME280;9626;52.552;13.436;2023-04-10T10:08:48;101815.19;;;16.98;57.65
18985;BME280;9626;52.552;13.436;2023-04-10T10:11:22;101802.09;;;17.19;56.34
18985;BME280;9626;52.552;13.436;2023-04-10T10:13:50;101801.72;;;17.01;57.89
18985;BME280;9626;52.552;13.436;2023-04-10T10:16:36;101805.28;;;17.02;58.00
18985;BME280;9626;52.552;13.436;2023-04-10T10:21:29;101795.44;;;17.02;57.61
18985;BME280;9626;52.552;13.436;2023-04-10T10:23:59;101786.84;;;17.22;57.88
18985;BME280;9626;52.552;13.436;2023-04-10T10:26:27;101785.94;;;17.52;56.12
18985;BME280;9626;52.552;13.436;2023-04-10T10:28:55;101788.91;;;17.71;54.66
18985;BME280;9626;52.552;13.436;2023-04-10T10:31:24;101773.91;;;18.20;53.84
18985;BME280;9626;52.552;13.436;2023-04-10T10:33:51;101780.50;;;17.82;52.88
18985;BME280;9626;52.552;13.436;2023-04-10T10:36:18;101768.00;;;17.26;54.92
18985;BME280;9626;52.552;13.436;2023-04-10T10:41:39;101766.91;;;17.61;54.42
18985;BME280;9626;52.552;13.436;2023-04-10T10:44:12;101761.84;;;18.34;50.87
18985;BME280;9626;52.552;13.436;2023-04-10T10:46:43;101753.97;;;18.54;49.87
18985;BME280;9626;52.552;13.436;2023-04-10T10:49:12;101752.19;;;18.28;49.70
18985;BME280;9626;52.552;13.436;2023-04-10T10:51:46;101743.59;;;17.93;49.81
18985;BME280;9626;52.552;13.436;2023-04-10T10:56:54;101751.28;;;17.47;53.28
18985;BME280;9626;52.552;13.436;2023-04-10T11:02:12;101740.50;;;17.20;51.68
18985;BME280;9626;52.552;13.436;2023-04-10T11:04:42;101735.66;;;17.62;50.79
18985;BME280;9626;52.552;13.436;2023-04-10T11:07:14;101736.63;;;17.31;52.47
18985;BME280;9626;52.552;13.436;2023-04-10T11:09:47;101729.34;;;17.63;50.89
18985;BME280;9626;52.552;13.436;2023-04-10T11:12:15;101728.03;;;18.30;48.65
18985;BME280;9626;52.552;13.436;2023-04-10T11:14:42;101723.75;;;17.99;50.01
18985;BME280;9626;52.552;13.436;2023-04-10T11:17:10;101718.03;;;17.54;50.09
18985;BME280;9626;52.552;13.436;2023-04-10T11:20:09;101715.44;;;17.51;51.46
18985;BME280;9626;52.552;13.436;2023-04-10T11:23:07;101711.44;;;17.65;51.36
18985;BME280;9626;52.552;13.436;2023-04-10T11:25:53;101713.63;;;17.53;51.16
18985;BME280;9626;52.552;13.436;2023-04-10T11:28:41;101704.25;;;17.10;52.92
18985;BME280;9626;52.552;13.436;2023-04-10T11:31:19;101706.72;;;17.16;51.93
18985;BME280;9626;52.552;13.436;2023-04-10T11:33:48;101691.19;;;17.29;51.50
18985;BME280;9626;52.552;13.436;2023-04-10T11:36:15;101698.63;;;17.19;51.11
18985;BME280;9626;52.552;13.436;2023-04-10T11:41:28;101693.63;;;17.37;51.90
18985;BME280;9626;52.552;13.436;2023-04-10T11:43:56;101684.47;;;17.98;50.49
18985;BME280;9626;52.552;13.436;2023-04-10T11:46:22;101685.59;;;18.90;47.73
18985;BME280;9626;52.552;13.436;2023-04-10T11:49:01;101679.88;;;19.21;46.68
18985;BME280;9626;52.552;13.436;2023-04-10T11:51:28;101675.50;;;19.41;46.12
18985;BME280;9626;52.552;13.436;2023-04-10T11:54:12;101673.63;;;18.99;47.37
18985;BME280;9626;52.552;13.436;2023-04-10T11:56:40;101668.84;;;18.83;47.21
18985;BME280;9626;52.552;13.436;2023-04-10T11:59:13;101665.16;;;19.09;46.35
18985;BME280;9626;52.552;13.436;2023-04-10T12:01:44;101666.63;;;18.95;45.29
18985;BME280;9626;52.552;13.436;2023-04-10T12:04:18;101666.88;;;18.88;44.80
18985;BME280;9626;52.552;13.436;2023-04-10T12:06:51;101652.03;;;18.78;48.26
18985;BME280;9626;52.552;13.436;2023-04-10T12:09:19;101651.34;;;18.26;49.92
18985;BME280;9626;52.552;13.436;2023-04-10T12:14:22;101640.25;;;17.84;48.48
18985;BME280;9626;52.552;13.436;2023-04-10T12:16:49;101630.50;;;17.56;49.30
18985;BME280;9626;52.552;13.436;2023-04-10T12:19:16;101626.13;;;17.79;49.66
18985;BME280;9626;52.552;13.436;2023-04-10T12:21:43;101622.16;;;17.91;47.66
18985;BME280;9626;52.552;13.436;2023-04-10T12:24:10;101623.91;;;18.17;47.14
18985;BME280;9626;52.552;13.436;2023-04-10T12:26:37;101621.59;;;18.08;47.50
18985;BME280;9626;52.552;13.436;2023-04-10T12:29:03;101621.66;;;18.30;46.28
18985;BME280;9626;52.552;13.436;2023-04-10T12:31:35;101620.09;;;18.72;46.68
18985;BME280;9626;52.552;13.436;2023-04-10T12:34:02;101616.50;;;18.49;44.73
18985;BME280;9626;52.552;13.436;2023-04-10T12:36:31;101605.25;;;18.39;44.89
18985;BME280;9626;52.552;13.436;2023-04-10T12:39:03;101606.00;;;18.67;43.78
18985;BME280;9626;52.552;13.436;2023-04-10T12:41:32;101601.03;;;19.02;44.17
18985;BME280;9626;52.552;13.436;2023-04-10T12:44:10;101596.97;;;19.14;44.84
18985;BME280;9626;52.552;13.436;2023-04-10T12:46:37;101581.25;;;19.04;44.31
18985;BME280;9626;52.552;13.436;2023-04-10T12:49:13;101585.19;;;19.18;42.78
18985;BME280;9626;52.552;13.436;2023-04-10T12:51:51;101579.97;;;19.35;42.99
18985;BME280;9626;52.552;13.436;2023-04-10T12:54:34;101567.88;;;19.88;42.17
18985;BME280;9626;52.552;13.436;2023-04-10T12:57:02;101564.31;;;20.27;41.85
18985;BME280;9626;52.552;13.436;2023-04-10T12:59:31;101559.66;;;20.69;40.18
18985;BME280;9626;52.552;13.436;2023-04-10T13:01:57;101556.50;;;19.61;41.61
18985;BME280;9626;52.552;13.436;2023-04-10T13:04:23;101562.34;;;19.50;42.77
18985;BME280;9626;52.552;13.436;2023-04-10T13:06:51;101551.13;;;19.82;41.99
18985;BME280;9626;52.552;13.436;2023-04-10T13:09:17;101551.91;;;18.32;44.79
18985;BME280;9626;52.552;13.436;2023-04-10T13:11:43;101535.47;;;17.43;47.58
18985;BME280;9626;52.552;13.436;2023-04-10T13:14:09;101541.25;;;18.76;44.84
18985;BME280;9626;52.552;13.436;2023-04-10T13:16:35;101528.66;;;19.21;43.82
18985;BME280;9626;52.552;13.436;2023-04-10T13:19:02;101520.97;;;19.34;42.97
18985;BME280;9626;52.552;13.436;2023-04-10T13:21:28;101512.97;;;20.13;41.90
18985;BME280;9626;52.552;13.436;2023-04-10T13:23:54;101500.03;;;20.40;40.79
18985;BME280;9626;52.552;13.436;2023-04-10T13:26:21;101503.34;;;20.65;40.78
18985;BME280;9626;52.552;13.436;2023-04-10T13:28:49;101500.19;;;20.37;40.98